sensor_id;sensor_type;location;lat;lon;timestamp;pressure;altitude;pressure_sealevel;temperature;humidity
25855;BME280;13680;49.936;11.344;2023-05-07T00:00:37;96810.66;;;14.47;71.38
25855;BME280;13680;49.936;11.344;2023-05-07T00:03:03;96813.84;;;14.49;71.07
25855;BME280;13680;49.936;11.344;2023-05-07T00:05:28;96821.19;;;14.40;71.61
25855;BME280;13680;49.936;11.344;2023-05-07T00:07:53;96819.72;;;14.43;71.36
25855;BME280;13680;49.936;11.344;2023-05-07T00:10:19;96817.19;;;14.46;71.44
25855;BME280;13680;49.936;11.344;2023-05-07T00:12:44;96818.44;;;14.49;71.05
25855;BME280;13680;49.936;11.344;2023-05-07T00:15:10;96815.28;;;14.47;70.64
25855;BME280;13680;49.936;11.344;2023-05-07T00:17:36;96811.78;;;14.46;70.67
25855;BME280;13680;49.936;11.344;2023-05-07T00:20:03;96818.03;;;14.38;71.34
25855;BME280;13680;49.936;11.344;2023-05-07T00:22:30;96817.69;;;14.39;71.59
25855;BME280;13680;49.936;11.344;2023-05-07T00:24:56;96811.00;;;14.37;71.55
25855;BME280;13680;49.936;11.344;2023-05-07T00:27:22;96816.41;;;14.37;71.52
25855;BME280;13680;49.936;11.344;2023-05-07T00:29:47;96813.22;;;14.35;71.75
25855;BME280;13680;49.936;11.344;2023-05-07T00:32:13;96813.22;;;14.35;71.47
25855;BME280;13680;49.936;11.344;2023-05-07T00:34:38;96821.50;;;14.38;71.14
25855;BME280;13680;49.936;11.344;2023-05-07T00:37:04;96820.25;;;14.36;71.93
25855;BME280;13680;49.936;11.344;2023-05-07T00:39:30;96822.78;;;14.32;71.70
25855;BME280;13680;49.936;11.344;2023-05-07T00:41:55;96815.31;;;14.29;72.13
25855;BME280;13680;49.936;11.344;2023-05-07T00:44:20;96819.00;;;14.24;72.54
25855;BME280;13680;49.936;11.344;2023-05-07T00:46:46;96824.88;;;14.27;72.88
25855;BME280;13680;49.936;11.344;2023-05-07T00:49:14;96821.53;;;14.30;72.80
25855;BME280;13680;49.936;11.344;2023-05-07T00:51:39;96818.34;;;14.28;72.67
25855;BME280;13680;49.936;11.344;2023-05-07T00:54:04;96816.78;;;14.27;72.60
25855;BME280;13680;49.936;11.344;2023-05-07T00:56:31;96809.25;;;14.32;72.25
25855;BME280;13680;49.936;11.344;2023-05-07T00:58:56;96812.94;;;14.28;72.88
25855;BME280;13680;49.936;11.344;2023-05-07T01:01:22;96815.16;;;14.34;72.25
25855;BME280;13680;49.936;11.344;2023-05-07T01:03:47;96813.06;;;14.31;73.09
25855;BME280;13680;49.936;11.344;2023-05-07T01:06:13;96811.00;;;14.37;72.42
25855;BME280;13680;49.936;11.344;2023-05-07T01:08:42;96815.66;;;14.28;72.45
25855;BME280;13680;49.936;11.344;2023-05-07T01:11:08;96813.25;;;14.26;72.56
25855;BME280;13680;49.936;11.344;2023-05-07T01:13:35;96810.25;;;14.28;72.27
25855;BME280;13680;49.936;11.344;2023-05-07T01:16:02;96807.84;;;14.26;72.54
25855;BME280;13680;49.936;11.344;2023-05-07T01:18:28;96807.53;;;14.28;72.56
25855;BME280;13680;49.936;11.344;2023-05-07T01:20:57;96809.75;;;14.26;72.81
25855;BME280;13680;49.936;11.344;2023-05-07T01:23:23;96811.84;;;14.20;72.56
25855;BME280;13680;49.936;11.344;2023-05-07T01:25:53;96809.44;;;14.18;73.36
25855;BME280;13680;49.936;11.344;2023-05-07T01:28:19;96812.16;;;14.18;73.46
25855;BME280;13680;49.936;11.344;2023-05-07T01:30:47;96812.31;;;14.13;73.40
25855;BME280;13680;49.936;11.344;2023-05-07T01:33:15;96808.03;;;14.12;73.24
25855;BME280;13680;49.936;11.344;2023-05-07T01:35:46;96808.84;;;14.13;73.21
25855;BME280;13680;49.936;11.344;2023-05-07T01:38:13;96808.50;;;14.14;73.50
25855;BME280;13680;49.936;11.344;2023-05-07T01:40:38;96808.81;;;14.21;72.68
25855;BME280;13680;49.936;11.344;2023-05-07T01:43:04;96809.44;;;14.18;72.80
25855;BME280;13680;49.936;11.344;2023-05-07T01:45:31;96800.72;;;14.13;73.13
25855;BME280;13680;49.936;11.344;2023-05-07T01:47:58;96808.06;;;14.03;73.10
25855;BME280;13680;49.936;11.344;2023-05-07T01:50:24;96804.84;;;14.19;72.47
25855;BME280;13680;49.936;11.344;2023-05-07T01:52:50;96814.22;;;14.21;72.59
25855;BME280;13680;49.936;11.344;2023-05-07T01:55:16;96811.03;;;14.19;72.17
25855;BME280;13680;49.936;11.344;2023-05-07T01:57:41;96820.44;;;14.22;72.21
25855;BME280;13680;49.936;11.344;2023-05-07T02:00:07;96819.66;;;14.21;72.50
25855;BME280;13680;49.936;11.344;2023-05-07T02:02:34;96819.66;;;14.21;72.89
25855;BME280;13680;49.936;11.344;2023-05-07T02:04:59;96818.69;;;14.17;72.55
25855;BME280;13680;49.936;11.344;2023-05-07T02:07:26;96820.44;;;14.13;71.97
25855;BME280;13680;49.936;11.344;2023-05-07T02:09:51;96814.06;;;14.18;72.57
25855;BME280;13680;49.936;11.344;2023-05-07T02:12:17;96807.84;;;14.26;70.94
25855;BME280;13680;49.936;11.344;2023-05-07T02:14:42;96808.69;;;14.09;71.44
25855;BME280;13680;49.936;11.344;2023-05-07T02:17:07;96805.69;;;13.93;71.64
25855;BME280;13680;49.936;11.344;2023-05-07T02:19:33;96805.03;;;14.05;71.40
25855;BME280;13680;49.936;11.344;2023-05-07T02:21:58;96800.56;;;14.18;70.74
25855;BME280;13680;49.936;11.344;2023-05-07T02:24:23;96800.41;;;14.05;71.25
25855;BME280;13680;49.936;11.344;2023-05-07T02:26:49;96803.41;;;14.21;70.71
25855;BME280;13680;49.936;11.344;2023-05-07T02:29:14;96794.94;;;14.32;70.03
25855;BME280;13680;49.936;11.344;2023-05-07T02:31:40;96794.78;;;14.37;70.40
25855;BME280;13680;49.936;11.344;2023-05-07T02:34:05;96800.22;;;14.28;69.83
25855;BME280;13680;49.936;11.344;2023-05-07T02:36:30;96798.94;;;14.26;70.31
25855;BME280;13680;49.936;11.344;2023-05-07T02:38:56;96802.31;;;14.22;70.97
25855;BME280;13680;49.936;11.344;2023-05-07T02:41:21;96800.38;;;14.32;69.61
25855;BME280;13680;49.936;11.344;2023-05-07T02:43:46;96792.59;;;14.21;70.37
25855;BME280;13680;49.936;11.344;2023-05-07T02:46:12;96794.19;;;14.22;69.80
25855;BME280;13680;49.936;11.344;2023-05-07T02:48:37;96787.38;;;14.16;70.72
25855;BME280;13680;49.936;11.344;2023-05-07T02:51:03;96781.31;;;14.11;70.76
25855;BME280;13680;49.936;11.344;2023-05-07T02:53:29;96790.06;;;14.07;70.40
25855;BME280;13680;49.936;11.344;2023-05-07T02:55:59;96780.06;;;13.90;71.21
25855;BME280;13680;49.936;11.344;2023-05-07T02:58:24;96783.09;;;13.89;71.44
25855;BME280;13680;49.936;11.344;2023-05-07T03:00:50;96773.19;;;14.11;70.60
25855;BME280;13680;49.936;11.344;2023-05-07T03:03:16;96771.84;;;13.87;71.43
25855;BME280;13680;49.936;11.344;2023-05-07T03:05:41;96776.91;;;13.80;72.24
25855;BME280;13680;49.936;11.344;2023-05-07T03:08:08;96780.56;;;13.84;71.55
25855;BME280;13680;49.936;11.344;2023-05-07T03:10:33;96782.16;;;13.76;72.19
25855;BME280;13680;49.936;11.344;2023-05-07T03:12:59;96788.19;;;13.90;71.05
25855;BME280;13680;49.936;11.344;2023-05-07T03:15:24;96792.69;;;13.69;71.83
25855;BME280;13680;49.936;11.344;2023-05-07T03:17:50;96794.25;;;13.70;71.81
25855;BME280;13680;49.936;11.344;2023-05-07T03:20:15;96796.16;;;13.78;70.98
25855;BME280;13680;49.936;11.344;2023-05-07T03:22:41;96801.06;;;14.02;70.44
25855;BME280;13680;49.936;11.344;2023-05-07T03:25:07;96788.50;;;13.98;70.86
25855;BME280;13680;49.936;11.344;2023-05-07T03:27:32;96792.34;;;13.62;71.53
25855;BME280;13680;49.936;11.344;2023-05-07T03:29:58;96788.53;;;13.71;71.31
25855;BME280;13680;49.936;11.344;2023-05-07T03:32:23;96782.16;;;13.76;71.31
25855;BME280;13680;49.936;11.344;2023-05-07T03:34:49;96791.53;;;13.79;71.36
25855;BME280;13680;49.936;11.344;2023-05-07T03:37:15;96784.69;;;13.90;70.10
25855;BME280;13680;49.936;11.344;2023-05-07T03:39:40;96787.25;;;13.86;70.23
25855;BME280;13680;49.936;11.344;2023-05-07T03:42:06;96785.81;;;13.89;70.17
25855;BME280;13680;49.936;11.344;2023-05-07T03:44:31;96787.25;;;13.86;70.62
25855;BME280;13680;49.936;11.344;2023-05-07T03:46:56;96786.78;;;13.84;70.54
25855;BME280;13680;49.936;11.344;2023-05-07T03:49:21;96787.56;;;13.58;71.74
25855;BME280;13680;49.936;11.344;2023-05-07T03:51:47;96795.06;;;13.70;71.20
25855;BME280;13680;49.936;11.344;2023-05-07T03:54:12;96795.50;;;13.64;71.25
25855;BME280;13680;49.936;11.344;2023-05-07T03:56:38;96799.03;;;13.73;70.86
25855;BME280;13680;49.936;11.344;2023-05-07T03:59:03;96805.06;;;13.70;71.33
25855;BME280;13680;49.936;11.344;2023-05-07T04:01:28;96806.81;;;13.74;70.75
25855;BME280;13680;49.936;11.344;2023-05-07T04:03:54;96812.69;;;13.59;71.30
25855;BME280;13680;49.936;11.344;2023-05-07T04:06:19;96804.25;;;13.52;71.90
25855;BME280;13680;49.936;11.344;2023-05-07T04:08:44;96810.91;;;13.46;72.92
25855;BME280;13680;49.936;11.344;2023-05-07T04:11:10;96806.00;;;13.39;72.80
25855;BME280;13680;49.936;11.344;2023-05-07T04:13:35;96807.06;;;13.29;73.48
25855;BME280;13680;49.936;11.344;2023-05-07T04:16:02;96816.16;;;13.42;73.50
25855;BME280;13680;49.936;11.344;2023-05-07T04:18:28;96813.31;;;13.56;72.29
25855;BME280;13680;49.936;11.344;2023-05-07T04:20:53;96820.97;;;13.63;71.75
25855;BME280;13680;49.936;11.344;2023-05-07T04:23:19;96818.09;;;13.50;72.64
25855;BME280;13680;49.936;11.344;2023-05-07T04:25:44;96817.91;;;13.47;72.74
25855;BME280;13680;49.936;11.344;2023-05-07T04:28:10;96824.53;;;13.32;73.18
25855;BME280;13680;49.936;11.344;2023-05-07T04:30:36;96816.16;;;13.42;73.05
25855;BME280;13680;49.936;11.344;2023-05-07T04:33:02;96827.63;;;13.56;72.25
25855;BME280;13680;49.936;11.344;2023-05-07T04:35:27;96829.84;;;13.54;71.69
25855;BME280;13680;49.936;11.344;2023-05-07T04:37:53;96834.78;;;13.44;72.31
25855;BME280;13680;49.936;11.344;2023-05-07T04:40:18;96842.56;;;13.45;72.54
25855;BME280;13680;49.936;11.344;2023-05-07T04:42:43;96851.75;;;13.44;73.10
25855;BME280;13680;49.936;11.344;2023-05-07T04:45:09;96853.22;;;13.50;72.34
25855;BME280;13680;49.936;11.344;2023-05-07T04:47:35;96860.69;;;13.45;73.12
25855;BME280;13680;49.936;11.344;2023-05-07T04:50:01;96869.75;;;13.49;73.45
25855;BME280;13680;49.936;11.344;2023-05-07T04:52:26;96871.03;;;13.60;73.25
25855;BME280;13680;49.936;11.344;2023-05-07T04:54:52;96874.50;;;13.61;73.19
25855;BME280;13680;49.936;11.344;2023-05-07T04:57:17;96874.22;;;13.80;73.00
25855;BME280;13680;49.936;11.344;2023-05-07T04:59:43;96877.53;;;13.85;72.32
25855;BME280;13680;49.936;11.344;2023-05-07T05:02:10;96865.94;;;13.94;72.18
25855;BME280;13680;49.936;11.344;2023-05-07T05:04:35;96870.41;;;13.98;72.07
25855;BME280;13680;49.936;11.344;2023-05-07T05:07:02;96867.69;;;14.07;72.09
25855;BME280;13680;49.936;11.344;2023-05-07T05:09:28;96875.34;;;14.14;71.85
25855;BME280;13680;49.936;11.344;2023-05-07T05:11:54;96863.06;;;14.25;71.26
25855;BME280;13680;49.936;11.344;2023-05-07T05:14:19;96871.03;;;14.30;70.13
25855;BME280;13680;49.936;11.344;2023-05-07T05:16:44;96865.09;;;14.46;69.17
25855;BME280;13680;49.936;11.344;2023-05-07T05:19:10;96866.03;;;14.59;69.35
25855;BME280;13680;49.936;11.344;2023-05-07T05:21:35;96873.09;;;14.89;68.22
25855;BME280;13680;49.936;11.344;2023-05-07T05:24:01;96873.28;;;14.84;68.39
25855;BME280;13680;49.936;11.344;2023-05-07T05:26:26;96867.94;;;14.67;70.25
25855;BME280;13680;49.936;11.344;2023-05-07T05:28:51;96867.50;;;14.95;69.01
25855;BME280;13680;49.936;11.344;2023-05-07T05:31:17;96867.78;;;15.11;68.35
25855;BME280;13680;49.936;11.344;2023-05-07T05:33:42;96864.47;;;15.35;66.98
25855;BME280;13680;49.936;11.344;2023-05-07T05:36:10;96860.59;;;15.36;66.38
25855;BME280;13680;49.936;11.344;2023-05-07T05:38:37;96853.88;;;15.42;66.14
25855;BME280;13680;49.936;11.344;2023-05-07T05:41:03;96862.63;;;15.48;65.97
25855;BME280;13680;49.936;11.344;2023-05-07T05:43:28;96873.00;;;15.46;65.81
25855;BME280;13680;49.936;11.344;2023-05-07T05:45:55;96871.13;;;15.37;65.76
25855;BME280;13680;49.936;11.344;2023-05-07T05:48:20;96871.28;;;15.41;65.65
25855;BME280;13680;49.936;11.344;2023-05-07T05:50:46;96876.06;;;15.14;66.95
25855;BME280;13680;49.936;11.344;2023-05-07T05:53:11;96870.94;;;15.13;67.31
25855;BME280;13680;49.936;11.344;2023-05-07T05:55:36;96871.09;;;15.46;66.10
25855;BME280;13680;49.936;11.344;2023-05-07T05:58:02;96858.47;;;15.71;65.18
25855;BME280;13680;49.936;11.344;2023-05-07T06:00:28;96861.44;;;15.79;65.26
25855;BME280;13680;49.936;11.344;2023-05-07T06:02:53;96869.63;;;16.00;64.77
25855;BME280;13680;49.936;11.344;2023-05-07T06:05:18;96869.03;;;16.28;63.05
25855;BME280;13680;49.936;11.344;2023-05-07T06:07:44;96866.28;;;16.15;62.86
25855;BME280;13680;49.936;11.344;2023-05-07T06:10:09;96874.44;;;15.94;64.05
25855;BME280;13680;49.936;11.344;2023-05-07T06:12:35;96874.16;;;16.29;63.35
25855;BME280;13680;49.936;11.344;2023-05-07T06:15:00;96880.84;;;16.78;62.25
25855;BME280;13680;49.936;11.344;2023-05-07T06:17:26;96880.28;;;16.39;62.60
25855;BME280;13680;49.936;11.344;2023-05-07T06:19:52;96877.53;;;16.60;61.60
25855;BME280;13680;49.936;11.344;2023-05-07T06:22:17;96872.41;;;16.92;61.23
25855;BME280;13680;49.936;11.344;2023-05-07T06:24:43;96876.19;;;16.78;61.28
25855;BME280;13680;49.936;11.344;2023-05-07T06:27:08;96882.78;;;16.10;61.89
25855;BME280;13680;49.936;11.344;2023-05-07T06:29:33;96884.09;;;16.04;62.67
25855;BME280;13680;49.936;11.344;2023-05-07T06:32:09;96877.69;;;16.42;62.37
25855;BME280;13680;49.936;11.344;2023-05-07T06:34:35;96881.06;;;16.73;61.37
25855;BME280;13680;49.936;11.344;2023-05-07T06:37:00;96889.41;;;17.13;59.68
25855;BME280;13680;49.936;11.344;2023-05-07T06:39:26;96887.03;;;17.24;59.48
25855;BME280;13680;49.936;11.344;2023-05-07T06:41:51;96878.06;;;17.11;59.89
25855;BME280;13680;49.936;11.344;2023-05-07T06:44:17;96885.19;;;16.91;59.73
25855;BME280;13680;49.936;11.344;2023-05-07T06:46:42;96888.03;;;17.32;58.36
25855;BME280;13680;49.936;11.344;2023-05-07T06:49:08;96891.41;;;17.04;59.62
25855;BME280;13680;49.936;11.344;2023-05-07T06:51:33;96886.56;;;16.97;59.85
25855;BME280;13680;49.936;11.344;2023-05-07T06:53:58;96892.44;;;16.99;60.73
25855;BME280;13680;49.936;11.344;2023-05-07T06:56:24;96885.78;;;16.97;60.24
25855;BME280;13680;49.936;11.344;2023-05-07T06:58:50;96892.47;;;17.37;58.43
25855;BME280;13680;49.936;11.344;2023-05-07T07:01:15;96898.69;;;17.12;59.45
25855;BME280;13680;49.936;11.344;2023-05-07T07:03:41;96891.75;;;17.02;61.92
25855;BME280;13680;49.936;11.344;2023-05-07T07:06:06;96891.03;;;16.81;60.53
25855;BME280;13680;49.936;11.344;2023-05-07T07:08:32;96891.53;;;16.95;61.12
25855;BME280;13680;49.936;11.344;2023-05-07T07:10:57;96899.59;;;17.16;59.53
25855;BME280;13680;49.936;11.344;2023-05-07T07:13:23;96901.38;;;17.00;60.37
25855;BME280;13680;49.936;11.344;2023-05-07T07:15:48;96895.84;;;17.33;59.06
25855;BME280;13680;49.936;11.344;2023-05-07T07:18:14;96894.50;;;17.40;59.57
25855;BME280;13680;49.936;11.344;2023-05-07T07:20:39;96896.44;;;17.39;58.86
25855;BME280;13680;49.936;11.344;2023-05-07T07:23:05;96898.91;;;17.57;59.76
25855;BME280;13680;49.936;11.344;2023-05-07T07:25:30;96894.69;;;17.72;58.45
25855;BME280;13680;49.936;11.344;2023-05-07T07:27:55;96895.28;;;17.28;59.37
25855;BME280;13680;49.936;11.344;2023-05-07T07:30:21;96893.03;;;17.30;58.91
25855;BME280;13680;49.936;11.344;2023-05-07T07:32:46;96895.94;;;17.25;59.79
25855;BME280;13680;49.936;11.344;2023-05-07T07:35:11;96892.78;;;17.72;58.73
25855;BME280;13680;49.936;11.344;2023-05-07T07:37:37;96895.91;;;17.99;58.11
25855;BME280;13680;49.936;11.344;2023-05-07T07:40:02;96899.16;;;17.92;58.44
25855;BME280;13680;49.936;11.344;2023-05-07T07:42:28;96898.94;;;18.38;56.95
25855;BME280;13680;49.936;11.344;2023-05-07T07:44:54;96895.44;;;18.09;57.67
25855;BME280;13680;49.936;11.344;2023-05-07T07:47:19;96893.16;;;18.40;57.24
25855;BME280;13680;49.936;11.344;2023-05-07T07:49:45;96894.25;;;18.51;56.27
25855;BME280;13680;49.936;11.344;2023-05-07T07:52:10;96892.06;;;18.57;56.58
25855;BME280;13680;49.936;11.344;2023-05-07T07:54:36;96892.34;;;18.11;57.27
25855;BME280;13680;49.936;11.344;2023-05-07T07:57:01;96891.28;;;18.56;55.95
25855;BME280;13680;49.936;11.344;2023-05-07T07:59:26;96897.00;;;18.10;57.69
25855;BME280;13680;49.936;11.344;2023-05-07T08:01:52;96889.38;;;18.44;56.02
25855;BME280;13680;49.936;11.344;2023-05-07T08:04:21;96888.25;;;18.45;57.18
25855;BME280;13680;49.936;11.344;2023-05-07T08:06:46;96879.88;;;18.67;55.83
25855;BME280;13680;49.936;11.344;2023-05-07T08:09:11;96900.44;;;18.80;56.29
25855;BME280;13680;49.936;11.344;2023-05-07T08:11:37;96895.84;;;19.12;55.24
25855;BME280;13680;49.936;11.344;2023-05-07T08:14:02;96893.34;;;19.23;56.88
25855;BME280;13680;49.936;11.344;2023-05-07T08:16:28;96894.53;;;19.58;55.11
25855;BME280;13680;49.936;11.344;2023-05-07T08:18:53;96898.25;;;19.50;54.98
25855;BME280;13680;49.936;11.344;2023-05-07T08:21:19;96898.81;;;19.91;54.41
25855;BME280;13680;49.936;11.344;2023-05-07T08:23:45;96889.34;;;20.04;53.31
25855;BME280;13680;49.936;11.344;2023-05-07T08:26:10;96895.66;;;19.21;54.63
25855;BME280;13680;49.936;11.344;2023-05-07T08:28:36;96886.59;;;19.69;54.29
25855;BME280;13680;49.936;11.344;2023-05-07T08:31:01;96881.75;;;19.62;54.14
25855;BME280;13680;49.936;11.344;2023-05-07T08:33:27;96888.25;;;19.89;53.74
25855;BME280;13680;49.936;11.344;2023-05-07T08:35:52;96888.31;;;20.13;52.90
25855;BME280;13680;49.936;11.344;2023-05-07T08:38:17;96887.53;;;19.92;53.47
25855;BME280;13680;49.936;11.344;2023-05-07T08:40:43;96878.53;;;20.51;52.30
25855;BME280;13680;49.936;11.344;2023-05-07T08:43:12;96884.78;;;20.51;52.43
25855;BME280;13680;49.936;11.344;2023-05-07T08:45:39;96885.59;;;20.13;52.79
25855;BME280;13680;49.936;11.344;2023-05-07T08:48:09;96882.19;;;20.58;52.22
25855;BME280;13680;49.936;11.344;2023-05-07T08:50:39;96879.53;;;20.62;52.67
25855;BME280;13680;49.936;11.344;2023-05-07T08:53:05;96889.47;;;20.51;52.27
25855;BME280;13680;49.936;11.344;2023-05-07T08:55:30;96889.16;;;20.75;52.00
25855;BME280;13680;49.936;11.344;2023-05-07T08:57:56;96894.44;;;21.11;50.85
25855;BME280;13680;49.936;11.344;2023-05-07T09:00:22;96894.81;;;20.86;50.71
25855;BME280;13680;49.936;11.344;2023-05-07T09:02:47;96898.53;;;20.98;51.47
25855;BME280;13680;49.936;11.344;2023-05-07T09:05:13;96898.22;;;21.03;51.24
25855;BME280;13680;49.936;11.344;2023-05-07T09:07:39;96896.34;;;21.07;50.60
25855;BME280;13680;49.936;11.344;2023-05-07T09:10:05;96891.66;;;21.31;50.38
25855;BME280;13680;49.936;11.344;2023-05-07T09:12:30;96895.91;;;21.28;49.61
25855;BME280;13680;49.936;11.344;2023-05-07T09:14:56;96891.38;;;21.13;49.57
25855;BME280;13680;49.936;11.344;2023-05-07T09:17:21;96893.38;;;21.42;49.81
25855;BME280;13680;49.936;11.344;2023-05-07T09:19:47;96885.69;;;21.25;50.56
25855;BME280;13680;49.936;11.344;2023-05-07T09:22:12;96876.22;;;21.69;49.28
25855;BME280;13680;49.936;11.344;2023-05-07T09:24:38;96884.69;;;22.21;50.01
25855;BME280;13680;49.936;11.344;2023-05-07T09:27:04;96890.31;;;22.01;48.21
25855;BME280;13680;49.936;11.344;2023-05-07T09:29:30;96885.81;;;22.16;48.07
25855;BME280;13680;49.936;11.344;2023-05-07T09:32:01;96885.50;;;21.91;49.36
25855;BME280;13680;49.936;11.344;2023-05-07T09:34:29;96891.84;;;21.99;49.75
25855;BME280;13680;49.936;11.344;2023-05-07T09:36:54;96876.56;;;22.28;47.36
25855;BME280;13680;49.936;11.344;2023-05-07T09:39:20;96884.34;;;22.22;48.01
25855;BME280;13680;49.936;11.344;2023-05-07T09:41:48;96879.78;;;22.34;46.96
25855;BME280;13680;49.936;11.344;2023-05-07T09:44:15;96883.94;;;21.63;47.38
25855;BME280;13680;49.936;11.344;2023-05-07T09:46:42;96879.09;;;21.80;48.33
25855;BME280;13680;49.936;11.344;2023-05-07T09:49:12;96887.34;;;22.44;48.31
25855;BME280;13680;49.936;11.344;2023-05-07T09:51:47;96884.19;;;22.42;47.75
25855;BME280;13680;49.936;11.344;2023-05-07T09:54:13;96885.81;;;22.47;47.13
25855;BME280;13680;49.936;11.344;2023-05-07T09:56:39;96885.13;;;22.57;47.13
25855;BME280;13680;49.936;11.344;2023-05-07T09:59:06;96880.91;;;21.45;48.90
25855;BME280;13680;49.936;11.344;2023-05-07T10:01:32;96881.88;;;21.83;49.73
25855;BME280;13680;49.936;11.344;2023-05-07T10:03:59;96874.50;;;22.52;47.26
25855;BME280;13680;49.936;11.344;2023-05-07T10:06:25;96879.22;;;22.93;47.14
25855;BME280;13680;49.936;11.344;2023-05-07T10:08:52;96887.34;;;22.82;46.48
25855;BME280;13680;49.936;11.344;2023-05-07T10:11:18;96885.72;;;22.77;46.73
25855;BME280;13680;49.936;11.344;2023-05-07T10:13:44;96885.78;;;23.22;45.64
25855;BME280;13680;49.936;11.344;2023-05-07T10:16:11;96878.72;;;23.84;44.35
25855;BME280;13680;49.936;11.344;2023-05-07T10:18:38;96879.75;;;24.28;43.43
25855;BME280;13680;49.936;11.344;2023-05-07T10:21:08;96884.47;;;24.42;44.17
25855;BME280;13680;49.936;11.344;2023-05-07T10:23:36;96875.88;;;24.54;41.42
25855;BME280;13680;49.936;11.344;2023-05-07T10:26:05;96870.88;;;24.99;42.35
25855;BME280;13680;49.936;11.344;2023-05-07T10:28:35;96864.59;;;24.92;42.62
25855;BME280;13680;49.936;11.344;2023-05-07T10:33:45;96861.81;;;24.74;42.22
25855;BME280;13680;49.936;11.344;2023-05-07T10:36:12;96859.84;;;25.50;40.22
25855;BME280;13680;49.936;11.344;2023-05-07T10:38:37;96859.06;;;25.17;41.15
25855;BME280;13680;49.936;11.344;2023-05-07T10:41:05;96853.56;;;25.28;40.53
25855;BME280;13680;49.936;11.344;2023-05-07T10:43:40;96853.97;;;25.23;41.39
25855;BME280;13680;49.936;11.344;2023-05-07T10:46:17;96859.41;;;25.77;40.33
25855;BME280;13680;49.936;11.344;2023-05-07T10:49:12;96848.88;;;26.50;38.10
25855;BME280;13680;49.936;11.344;2023-05-07T10:51:38;96852.56;;;26.28;38.69
25855;BME280;13680;49.936;11.344;2023-05-07T10:56:39;96853.19;;;25.22;39.13
25855;BME280;13680;49.936;11.344;2023-05-07T10:59:33;96862.59;;;24.85;39.74
25855;BME280;13680;49.936;11.344;2023-05-07T11:02:03;96853.97;;;24.83;41.02
25855;BME280;13680;49.936;11.344;2023-05-07T11:04:29;96848.06;;;25.17;40.06
25855;BME280;13680;49.936;11.344;2023-05-07T11:17:28;96847.06;;;26.28;38.76
25855;BME280;13680;49.936;11.344;2023-05-07T11:19:57;96863.22;;;26.97;37.97
25855;BME280;13680;49.936;11.344;2023-05-07T11:22:36;96875.84;;;27.85;36.88
25855;BME280;13680;49.936;11.344;2023-05-07T11:25:06;96859.72;;;28.46;35.21
25855;BME280;13680;49.936;11.344;2023-05-07T11:27:32;96849.34;;;27.91;36.76
25855;BME280;13680;49.936;11.344;2023-05-07T11:29:58;96852.63;;;27.34;36.84
25855;BME280;13680;49.936;11.344;2023-05-07T11:32:30;96852.97;;;26.94;35.17
25855;BME280;13680;49.936;11.344;2023-05-07T11:34:58;96850.72;;;27.31;35.99
25855;BME280;13680;49.936;11.344;2023-05-07T11:37:25;96843.13;;;27.42;34.50
25855;BME280;13680;49.936;11.344;2023-05-07T11:40:02;96850.44;;;26.54;35.08
25855;BME280;13680;49.936;11.344;2023-05-07T11:42:37;96851.84;;;26.84;34.95
25855;BME280;13680;49.936;11.344;2023-05-07T11:45:03;96845.78;;;26.48;35.80
25855;BME280;13680;49.936;11.344;2023-05-07T11:47:32;96837.44;;;27.11;36.54
25855;BME280;13680;49.936;11.344;2023-05-07T11:50:03;96836.59;;;27.63;35.40
25855;BME280;13680;49.936;11.344;2023-05-07T11:52:28;96835.13;;;27.55;34.84
25855;BME280;13680;49.936;11.344;2023-05-07T11:54:56;96838.56;;;27.66;33.31
25855;BME280;13680;49.936;11.344;2023-05-07T11:57:24;96835.34;;;27.71;34.52
25855;BME280;13680;49.936;11.344;2023-05-07T11:59:56;96838.78;;;28.17;33.32
25855;BME280;13680;49.936;11.344;2023-05-07T12:02:23;96835.25;;;26.91;34.61
25855;BME280;13680;49.936;11.344;2023-05-07T12:04:52;96841.19;;;27.39;35.51
25855;BME280;13680;49.936;11.344;2023-05-07T12:07:18;96833.75;;;26.83;34.47
25855;BME280;13680;49.936;11.344;2023-05-07T12:09:45;96832.81;;;27.01;33.95
25855;BME280;13680;49.936;11.344;2023-05-07T12:12:11;96836.13;;;26.81;35.07
25855;BME280;13680;49.936;11.344;2023-05-07T12:14:40;96837.66;;;26.89;34.76
25855;BME280;13680;49.936;11.344;2023-05-07T12:17:10;96837.91;;;27.51;35.14
25855;BME280;13680;49.936;11.344;2023-05-07T12:19:37;96840.28;;;27.49;33.21
25855;BME280;13680;49.936;11.344;2023-05-07T12:22:03;96841.00;;;27.57;33.24
25855;BME280;13680;49.936;11.344;2023-05-07T12:24:29;96837.13;;;27.51;33.72
25855;BME280;13680;49.936;11.344;2023-05-07T12:26:54;96831.88;;;27.18;34.44
25855;BME280;13680;49.936;11.344;2023-05-07T12:29:23;96843.47;;;26.99;35.92
25855;BME280;13680;49.936;11.344;2023-05-07T12:31:49;96838.88;;;26.07;35.34
25855;BME280;13680;49.936;11.344;2023-05-07T12:34:15;96836.69;;;27.56;35.32
25855;BME280;13680;49.936;11.344;2023-05-07T12:36:40;96834.63;;;27.22;34.37
25855;BME280;13680;49.936;11.344;2023-05-07T12:39:07;96839.03;;;27.12;34.85
25855;BME280;13680;49.936;11.344;2023-05-07T12:41:51;96842.47;;;26.78;34.40
25855;BME280;13680;49.936;11.344;2023-05-07T12:44:17;96844.94;;;26.54;34.39
25855;BME280;13680;49.936;11.344;2023-05-07T12:46:42;96846.13;;;26.50;35.37
25855;BME280;13680;49.936;11.344;2023-05-07T12:49:08;96846.00;;;26.71;34.95
25855;BME280;13680;49.936;11.344;2023-05-07T12:51:34;96845.47;;;27.47;33.64
25855;BME280;13680;49.936;11.344;2023-05-07T12:54:00;96833.81;;;28.63;31.92
25855;BME280;13680;49.936;11.344;2023-05-07T12:56:25;96841.50;;;27.86;33.34
25855;BME280;13680;49.936;11.344;2023-05-07T12:58:51;96834.84;;;28.46;32.29
25855;BME280;13680;49.936;11.344;2023-05-07T13:01:16;96830.84;;;29.29;29.06